Mark Center, Ohio
Current Conditions -  °F | °C
As of 3:53 AM on Monday 20 Oct 2014 (Local Time) from KDFI Reporting Station
Broken Clouds Broken Clouds  
Wind Chill: 44°   Ceiling: 9000
Heat Index: 48°   Visibility: 10mi
Dew Point: 41°   Wind: 8mph
Humidity: 77%   Direction: 200°SSW
Pressure: 29.95"   Gusts: NA
Location:  41.29°N, 84.63°W
Report Text: KDFI 200753Z AUTO 20007KT 10SM BKN090 09/05 A2995 RMK AO2 SLP144 T00890050
Loading
Personal Weather Stations






























Interactive Weather Map
Tropical Storm Tracking
New forecast layout! Learn more

10-Day Weather Forecast

Advertisements
Track Severe Weather on mobile